createdAt,value
2019-05-19T00:00:00.103Z,12.90
2019-05-19T00:02:27.680Z,12.90
2019-05-19T00:04:55.246Z,12.90
2019-05-19T00:07:22.779Z,12.90
2019-05-19T00:09:50.310Z,13.00
2019-05-19T00:12:17.876Z,13.00
2019-05-19T00:14:45.421Z,13.00
2019-05-19T00:17:12.977Z,12.90
2019-05-19T00:19:40.528Z,13.00
2019-05-19T00:22:08.107Z,12.90
2019-05-19T00:24:35.661Z,12.90
2019-05-19T00:27:03.196Z,12.90
2019-05-19T00:29:30.763Z,12.90
2019-05-19T00:31:58.361Z,12.90
2019-05-19T00:34:25.930Z,12.80
2019-05-19T00:36:53.474Z,12.70
2019-05-19T00:39:21.021Z,12.60
2019-05-19T00:41:48.634Z,12.60
2019-05-19T00:44:16.195Z,12.60
2019-05-19T00:46:43.737Z,12.50
2019-05-19T00:49:11.285Z,12.50
2019-05-19T00:51:38.831Z,12.40
2019-05-19T00:54:06.393Z,12.40
2019-05-19T00:56:33.926Z,12.40
2019-05-19T00:59:01.551Z,12.30
2019-05-19T01:01:29.088Z,12.30
2019-05-19T01:03:56.658Z,12.20
2019-05-19T01:06:24.197Z,12.20
2019-05-19T01:08:51.758Z,12.20
2019-05-19T01:11:19.294Z,12.20
2019-05-19T01:13:46.852Z,12.10
2019-05-19T01:16:14.410Z,12.10
2019-05-19T01:18:41.957Z,12.10
2019-05-19T01:21:09.524Z,12.10
2019-05-19T01:23:37.074Z,12.10
2019-05-19T01:26:04.633Z,12.10
2019-05-19T01:28:32.166Z,12.00
2019-05-19T01:30:59.715Z,12.00
2019-05-19T01:33:27.277Z,12.00
2019-05-19T01:35:54.816Z,11.90
2019-05-19T01:38:22.357Z,11.90
2019-05-19T01:40:49.920Z,11.90
2019-05-19T01:43:17.474Z,11.80
2019-05-19T01:45:45.808Z,11.80
2019-05-19T01:48:13.336Z,11.90
2019-05-19T01:50:40.888Z,11.90
2019-05-19T01:53:08.453Z,11.90
2019-05-19T01:55:36.003Z,11.90
2019-05-19T01:58:03.535Z,11.90
2019-05-19T02:00:31.086Z,11.90
2019-05-19T02:02:58.626Z,11.90
2019-05-19T02:05:26.184Z,11.90
2019-05-19T02:07:53.724Z,11.90
2019-05-19T02:10:21.290Z,11.90
2019-05-19T02:12:48.823Z,11.90
2019-05-19T02:15:16.378Z,12.00
2019-05-19T02:17:43.953Z,11.90
2019-05-19T02:20:11.507Z,11.90
2019-05-19T02:22:39.068Z,11.90
2019-05-19T02:25:06.641Z,11.90
2019-05-19T02:27:34.184Z,11.90
2019-05-19T02:30:02.280Z,11.90
2019-05-19T02:32:30.099Z,12.00
2019-05-19T02:34:57.656Z,12.00
2019-05-19T02:37:25.187Z,12.00
2019-05-19T02:39:52.757Z,12.00
2019-05-19T02:42:20.305Z,12.00
2019-05-19T02:44:48.424Z,12.00
2019-05-19T02:47:15.977Z,12.00
2019-05-19T02:49:43.525Z,12.00
2019-05-19T02:52:11.070Z,12.00
2019-05-19T02:54:38.615Z,12.00
2019-05-19T02:57:06.173Z,12.00
2019-05-19T02:59:33.995Z,12.00
2019-05-19T03:02:03.213Z,12.00
2019-05-19T03:04:30.749Z,12.00
2019-05-19T03:06:58.393Z,12.00
2019-05-19T03:09:25.927Z,12.00
2019-05-19T03:11:53.496Z,12.10
2019-05-19T03:14:21.028Z,12.10
2019-05-19T03:16:48.605Z,12.10
2019-05-19T03:19:16.161Z,12.10
2019-05-19T03:21:43.704Z,12.10
2019-05-19T03:24:11.269Z,12.00
2019-05-19T03:26:38.843Z,12.00
2019-05-19T03:29:06.822Z,12.00
2019-05-19T03:31:41.849Z,12.00
2019-05-19T03:34:09.403Z,12.00
2019-05-19T03:36:36.965Z,12.00
2019-05-19T03:39:05.673Z,11.90
2019-05-19T03:41:33.252Z,11.90
2019-05-19T03:44:00.778Z,11.80
2019-05-19T03:46:31.214Z,11.80
2019-05-19T03:48:58.787Z,11.70
2019-05-19T03:51:31.043Z,11.70
2019-05-19T03:53:55.620Z,11.60
2019-05-19T03:56:23.199Z,11.50
2019-05-19T03:58:50.746Z,11.50
2019-05-19T04:01:18.571Z,11.50
2019-05-19T04:03:46.141Z,11.50
2019-05-19T04:06:13.676Z,11.50
2019-05-19T04:08:41.246Z,11.50
2019-05-19T04:11:08.800Z,11.50
2019-05-19T04:13:36.339Z,11.60
2019-05-19T04:16:03.886Z,11.60
2019-05-19T04:18:31.463Z,11.60
2019-05-19T04:20:58.998Z,11.60
2019-05-19T04:23:26.574Z,11.70
2019-05-19T04:25:54.109Z,11.70
2019-05-19T04:28:21.664Z,11.80
2019-05-19T04:30:49.195Z,11.80
2019-05-19T04:33:16.743Z,12.00
2019-05-19T04:35:44.316Z,12.00
2019-05-19T04:38:11.843Z,12.10
2019-05-19T04:40:39.407Z,12.20
2019-05-19T04:43:07.240Z,12.30
2019-05-19T04:45:34.785Z,12.40
2019-05-19T04:48:02.370Z,12.50
2019-05-19T04:50:29.898Z,12.60
2019-05-19T04:52:57.462Z,12.70
2019-05-19T04:55:24.998Z,12.90
2019-05-19T04:57:52.565Z,13.00
2019-05-19T05:00:20.195Z,13.10
2019-05-19T05:02:47.749Z,13.30
2019-05-19T05:05:15.314Z,13.60
2019-05-19T05:07:42.843Z,13.80
2019-05-19T05:10:10.776Z,14.10
2019-05-19T05:12:38.310Z,14.30
2019-05-19T05:15:05.864Z,14.50
2019-05-19T05:17:33.434Z,14.80
2019-05-19T05:20:01.057Z,15.00
2019-05-19T05:22:28.596Z,15.30
2019-05-19T05:24:56.158Z,15.50
2019-05-19T05:27:23.722Z,15.70
2019-05-19T05:29:51.266Z,16.00
2019-05-19T05:32:18.819Z,16.30
2019-05-19T05:34:46.395Z,16.80
2019-05-19T05:37:13.926Z,17.30
2019-05-19T05:39:41.491Z,17.80
2019-05-19T05:42:09.044Z,18.20
2019-05-19T05:44:36.593Z,18.50
2019-05-19T05:47:04.125Z,18.80
2019-05-19T05:49:31.705Z,19.10
2019-05-19T05:51:59.286Z,19.50
2019-05-19T05:54:26.811Z,19.40
2019-05-19T05:56:54.393Z,19.50
2019-05-19T05:59:21.920Z,19.70
2019-05-19T06:01:49.485Z,19.30
2019-05-19T06:04:17.015Z,19.00
2019-05-19T06:06:45.883Z,18.90
2019-05-19T06:09:13.515Z,18.70
2019-05-19T06:11:41.061Z,18.60
2019-05-19T06:14:08.628Z,18.40
2019-05-19T06:16:36.168Z,18.10
2019-05-19T06:19:03.726Z,17.90
2019-05-19T06:21:31.268Z,17.80
2019-05-19T06:24:18.261Z,17.40
2019-05-19T06:26:45.798Z,17.30
2019-05-19T06:29:13.373Z,17.30
2019-05-19T06:31:40.918Z,17.30
2019-05-19T06:34:08.470Z,17.30
2019-05-19T06:36:36.086Z,17.30
2019-05-19T06:39:05.983Z,17.20
2019-05-19T06:41:33.595Z,17.10
2019-05-19T06:44:03.312Z,16.90
2019-05-19T06:46:30.430Z,16.90
2019-05-19T06:48:57.993Z,16.70
2019-05-19T06:51:25.522Z,16.60
2019-05-19T06:53:53.072Z,16.60
2019-05-19T06:56:20.640Z,16.70
2019-05-19T06:58:48.186Z,16.90
2019-05-19T07:01:15.733Z,17.10
2019-05-19T07:03:43.364Z,17.30
2019-05-19T07:06:10.898Z,17.50
2019-05-19T07:08:38.465Z,17.70
2019-05-19T07:11:05.986Z,17.80
2019-05-19T07:13:33.547Z,17.60
2019-05-19T07:16:01.153Z,17.60
2019-05-19T07:18:28.735Z,17.80
2019-05-19T07:20:56.271Z,18.00
2019-05-19T07:23:28.319Z,18.10
2019-05-19T07:25:53.160Z,18.10
2019-05-19T07:28:20.707Z,18.10
2019-05-19T07:30:48.254Z,18.30
2019-05-19T07:33:15.825Z,18.60
2019-05-19T07:35:43.375Z,18.60
2019-05-19T07:38:10.936Z,18.50
2019-05-19T07:40:38.476Z,18.70
2019-05-19T07:43:06.036Z,18.80
2019-05-19T07:45:33.563Z,18.90
2019-05-19T07:48:01.099Z,19.10
2019-05-19T07:50:28.673Z,19.40
2019-05-19T07:52:56.223Z,19.60
2019-05-19T07:55:23.771Z,19.80
2019-05-19T07:57:51.333Z,19.90
2019-05-19T08:00:18.870Z,19.70
2019-05-19T08:02:46.471Z,19.40
2019-05-19T08:05:14.076Z,19.30
2019-05-19T08:07:41.711Z,19.30
2019-05-19T08:10:09.278Z,19.30
2019-05-19T08:12:36.817Z,19.20
2019-05-19T08:15:07.436Z,19.10
2019-05-19T08:17:35.019Z,19.10
2019-05-19T08:20:03.246Z,19.10
2019-05-19T08:22:30.791Z,19.10
2019-05-19T08:24:58.370Z,19.10
2019-05-19T08:27:25.912Z,19.10
2019-05-19T08:29:53.506Z,19.10
2019-05-19T08:32:21.096Z,19.10
2019-05-19T08:34:48.679Z,19.00
2019-05-19T08:37:16.256Z,18.90
2019-05-19T08:39:43.800Z,18.90
2019-05-19T08:42:11.357Z,19.00
2019-05-19T08:44:38.916Z,19.20
2019-05-19T08:47:06.448Z,19.10
2019-05-19T08:49:34.017Z,19.30
2019-05-19T08:52:01.648Z,19.90
2019-05-19T08:54:29.184Z,20.20
2019-05-19T08:56:56.739Z,20.30
2019-05-19T08:59:24.270Z,21.00
2019-05-19T09:01:51.859Z,21.10
2019-05-19T09:04:19.400Z,21.20
2019-05-19T09:06:46.962Z,21.40
2019-05-19T09:09:14.503Z,21.80
2019-05-19T09:11:42.071Z,21.70
2019-05-19T09:14:09.604Z,21.40
2019-05-19T09:16:37.171Z,21.70
2019-05-19T09:19:04.725Z,23.30
2019-05-19T09:21:32.379Z,24.50
2019-05-19T09:23:59.938Z,24.60
2019-05-19T09:26:27.470Z,24.50
2019-05-19T09:28:55.028Z,24.20
2019-05-19T09:31:22.576Z,24.10
2019-05-19T09:33:50.140Z,23.60
2019-05-19T09:36:17.679Z,23.90
2019-05-19T09:38:45.235Z,24.40
2019-05-19T09:41:12.770Z,24.50
2019-05-19T09:43:40.333Z,24.40
2019-05-19T09:46:07.891Z,25.50
2019-05-19T09:48:35.451Z,26.80
2019-05-19T09:51:02.994Z,27.90
2019-05-19T09:53:30.544Z,27.90
2019-05-19T09:55:58.084Z,27.40
2019-05-19T09:58:25.648Z,26.60
2019-05-19T10:00:53.192Z,26.70
2019-05-19T10:03:20.746Z,28.30
2019-05-19T10:05:48.293Z,29.70
2019-05-19T10:08:16.020Z,29.90
2019-05-19T10:10:53.223Z,29.90
2019-05-19T10:13:20.794Z,29.60
2019-05-19T10:15:48.338Z,29.50
2019-05-19T10:18:15.912Z,29.50
2019-05-19T10:20:43.449Z,30.10
2019-05-19T10:23:10.998Z,31.10
2019-05-19T10:25:38.549Z,30.40
2019-05-19T10:28:06.115Z,30.40
2019-05-19T10:30:33.669Z,29.70
2019-05-19T10:33:01.230Z,30.10
2019-05-19T10:35:28.789Z,28.70
2019-05-19T10:37:56.333Z,28.10
2019-05-19T10:40:23.882Z,27.50
2019-05-19T10:42:51.495Z,27.60
2019-05-19T10:45:19.111Z,28.90
2019-05-19T10:47:46.657Z,29.90
2019-05-19T10:50:14.209Z,30.30
2019-05-19T10:52:41.743Z,28.80
2019-05-19T10:55:09.316Z,27.60
2019-05-19T10:57:36.851Z,28.20
2019-05-19T11:00:05.282Z,29.30
2019-05-19T11:02:32.837Z,30.40
2019-05-19T11:05:00.377Z,30.50
2019-05-19T11:07:27.945Z,29.50
2019-05-19T11:09:55.503Z,27.70
2019-05-19T11:12:23.052Z,27.10
2019-05-19T11:14:50.627Z,28.20
2019-05-19T11:17:18.193Z,29.30
2019-05-19T11:19:45.806Z,28.80
2019-05-19T11:22:13.369Z,28.50
2019-05-19T11:24:40.924Z,29.00
2019-05-19T11:27:10.082Z,30.00
2019-05-19T11:29:37.908Z,30.90
2019-05-19T11:32:05.464Z,31.50
2019-05-19T11:34:33.040Z,31.40
2019-05-19T11:37:00.571Z,31.10
2019-05-19T11:39:28.134Z,30.10
2019-05-19T11:41:55.713Z,28.70
2019-05-19T11:44:23.254Z,28.90
2019-05-19T11:46:50.833Z,29.60
2019-05-19T11:49:18.385Z,30.30
2019-05-19T11:51:45.911Z,30.50
2019-05-19T11:54:13.466Z,29.30
2019-05-19T11:56:41.028Z,28.00
2019-05-19T11:59:08.609Z,27.20
2019-05-19T12:01:36.163Z,27.30
2019-05-19T12:04:03.692Z,27.40
2019-05-19T12:06:39.543Z,28.40
2019-05-19T12:09:00.548Z,29.40
2019-05-19T12:11:28.106Z,29.40
2019-05-19T12:13:55.652Z,29.40
2019-05-19T12:16:23.203Z,30.00
2019-05-19T12:18:50.748Z,30.60
2019-05-19T12:21:18.306Z,30.80
2019-05-19T12:23:45.891Z,31.20
2019-05-19T12:26:22.751Z,30.90
2019-05-19T12:28:42.716Z,31.10
2019-05-19T12:31:10.253Z,30.20
2019-05-19T12:33:51.029Z,29.30
2019-05-19T12:36:07.072Z,29.50
2019-05-19T12:38:34.637Z,30.30
2019-05-19T12:41:02.191Z,31.60
2019-05-19T12:43:29.739Z,32.60
2019-05-19T12:45:57.324Z,33.10
2019-05-19T12:48:24.873Z,33.40
2019-05-19T12:50:52.448Z,33.80
2019-05-19T12:53:19.991Z,34.00
2019-05-19T12:55:47.555Z,34.10
2019-05-19T12:58:15.099Z,33.90
2019-05-19T13:00:42.643Z,33.70
2019-05-19T13:03:10.220Z,33.70
2019-05-19T13:05:37.765Z,34.10
2019-05-19T13:08:05.355Z,34.60
2019-05-19T13:10:32.892Z,34.70
2019-05-19T13:13:00.486Z,34.50
2019-05-19T13:15:28.011Z,34.30
2019-05-19T13:17:55.557Z,34.50
2019-05-19T13:20:23.121Z,34.90
2019-05-19T13:22:50.649Z,34.60
2019-05-19T13:25:18.218Z,33.90
2019-05-19T13:27:45.797Z,33.20
2019-05-19T13:30:13.349Z,32.40
2019-05-19T13:32:41.187Z,32.60
2019-05-19T13:35:08.744Z,32.70
2019-05-19T13:37:36.301Z,31.70
2019-05-19T13:40:06.533Z,32.20
2019-05-19T13:42:34.084Z,33.20
2019-05-19T13:45:01.633Z,33.50
2019-05-19T13:47:29.189Z,34.00
2019-05-19T13:49:56.736Z,34.40
2019-05-19T13:52:24.276Z,34.30
2019-05-19T13:54:51.882Z,32.80
2019-05-19T13:57:19.511Z,31.90
2019-05-19T13:59:47.066Z,32.00
2019-05-19T14:02:14.626Z,31.30
2019-05-19T14:04:42.178Z,30.30
2019-05-19T14:07:09.728Z,30.20
2019-05-19T14:09:37.291Z,30.70
2019-05-19T14:12:04.823Z,30.90
2019-05-19T14:14:32.396Z,30.80
2019-05-19T14:16:59.944Z,31.10
2019-05-19T14:19:27.517Z,31.00
2019-05-19T14:21:55.143Z,31.20
2019-05-19T14:24:22.690Z,30.50
2019-05-19T14:26:50.230Z,30.00
2019-05-19T14:29:17.787Z,29.70
2019-05-19T14:31:45.335Z,30.50
2019-05-19T14:34:12.885Z,31.60
2019-05-19T14:36:40.427Z,31.20
2019-05-19T14:39:08.004Z,30.30
2019-05-19T14:41:37.297Z,29.00
2019-05-19T14:44:04.857Z,28.20
2019-05-19T14:46:32.397Z,29.10
2019-05-19T14:48:59.955Z,30.70
2019-05-19T14:51:27.622Z,32.00
2019-05-19T14:53:55.176Z,32.80
2019-05-19T14:56:22.740Z,32.60
2019-05-19T14:58:50.302Z,31.50
2019-05-19T15:01:17.880Z,30.30
2019-05-19T15:03:45.430Z,29.80
2019-05-19T15:06:12.972Z,29.30
2019-05-19T15:08:40.538Z,29.00
2019-05-19T15:11:08.077Z,28.90
2019-05-19T15:13:35.623Z,29.00
2019-05-19T15:16:03.183Z,29.50
2019-05-19T15:18:30.790Z,30.00
2019-05-19T15:20:58.392Z,30.30
2019-05-19T15:23:25.945Z,30.50
2019-05-19T15:25:53.474Z,30.40
2019-05-19T15:28:21.039Z,30.20
2019-05-19T15:30:48.586Z,30.10
2019-05-19T15:33:16.117Z,29.80
2019-05-19T15:35:43.677Z,28.70
2019-05-19T15:38:11.204Z,27.50
2019-05-19T15:40:38.811Z,26.80
2019-05-19T15:43:06.400Z,26.00
2019-05-19T15:45:33.937Z,25.50
2019-05-19T15:48:01.529Z,25.10
2019-05-19T15:50:29.139Z,24.70
2019-05-19T15:52:56.692Z,24.30
2019-05-19T15:55:24.237Z,23.90
2019-05-19T15:57:51.795Z,23.80
2019-05-19T16:00:19.508Z,23.50
2019-05-19T16:02:47.090Z,23.30
2019-05-19T16:05:14.813Z,23.10
2019-05-19T16:07:42.435Z,22.70
2019-05-19T16:10:10.136Z,22.30
2019-05-19T16:12:37.670Z,22.10
2019-05-19T16:15:07.850Z,21.80
2019-05-19T16:17:35.802Z,21.70
2019-05-19T16:20:04.733Z,21.50
2019-05-19T16:22:32.287Z,21.40
2019-05-19T16:24:59.851Z,21.20
2019-05-19T16:27:27.394Z,21.20
2019-05-19T16:29:54.935Z,21.00
2019-05-19T16:32:22.492Z,20.90
2019-05-19T16:34:50.049Z,20.60
2019-05-19T16:37:17.594Z,20.50
2019-05-19T16:39:45.143Z,20.10
2019-05-19T16:42:12.706Z,19.50
2019-05-19T16:44:40.278Z,19.00
2019-05-19T16:47:07.850Z,18.80
2019-05-19T16:49:35.401Z,18.60
2019-05-19T16:52:02.935Z,18.40
2019-05-19T16:54:35.067Z,18.30
2019-05-19T16:57:02.633Z,18.20
2019-05-19T16:59:30.173Z,18.10
2019-05-19T17:01:57.733Z,18.20
2019-05-19T17:04:25.324Z,18.30
2019-05-19T17:06:52.855Z,18.30
2019-05-19T17:09:20.533Z,18.30
2019-05-19T17:11:48.241Z,18.40
2019-05-19T17:14:15.785Z,18.40
2019-05-19T17:16:43.356Z,18.40
2019-05-19T17:19:10.886Z,18.40
2019-05-19T17:21:38.449Z,18.40
2019-05-19T17:24:06.019Z,18.50
2019-05-19T17:26:33.571Z,18.40
2019-05-19T17:29:01.272Z,18.40
2019-05-19T17:31:28.938Z,18.40
2019-05-19T17:33:56.515Z,18.40
2019-05-19T17:36:27.304Z,18.40
2019-05-19T17:38:53.408Z,18.30
2019-05-19T17:41:20.993Z,18.20
2019-05-19T17:43:48.559Z,18.20
2019-05-19T17:46:16.156Z,18.20
2019-05-19T17:48:43.692Z,18.20
2019-05-19T17:51:11.269Z,18.10
2019-05-19T17:53:38.815Z,18.10
2019-05-19T17:56:06.360Z,18.10
2019-05-19T17:58:33.932Z,18.20
2019-05-19T18:01:01.476Z,18.10
2019-05-19T18:03:29.024Z,18.10
2019-05-19T18:05:56.595Z,17.90
2019-05-19T18:08:24.149Z,17.80
2019-05-19T18:10:51.692Z,17.60
2019-05-19T18:13:22.052Z,17.50
2019-05-19T18:15:49.588Z,17.50
2019-05-19T18:18:17.151Z,17.50
2019-05-19T18:20:47.033Z,17.40
2019-05-19T18:23:13.975Z,17.30
2019-05-19T18:25:41.518Z,17.20
2019-05-19T18:28:09.081Z,17.10
2019-05-19T18:30:36.611Z,17.20
2019-05-19T18:33:04.177Z,17.20
2019-05-19T18:35:31.723Z,17.20
2019-05-19T18:37:59.293Z,17.10
2019-05-19T18:40:26.818Z,17.10
2019-05-19T18:42:54.395Z,17.10
2019-05-19T18:45:21.937Z,17.10
2019-05-19T18:47:49.478Z,17.20
2019-05-19T18:50:17.027Z,17.10
2019-05-19T18:52:44.587Z,17.10
2019-05-19T18:55:12.136Z,17.00
2019-05-19T18:57:39.687Z,17.00
2019-05-19T19:00:07.350Z,17.00
2019-05-19T19:02:34.881Z,16.90
2019-05-19T19:05:05.432Z,16.90
2019-05-19T19:07:49.374Z,16.90
2019-05-19T19:10:16.941Z,16.90
2019-05-19T19:12:44.497Z,16.90
2019-05-19T19:15:12.034Z,16.90
2019-05-19T19:17:39.596Z,16.90
2019-05-19T19:20:07.438Z,16.80
2019-05-19T19:22:35.004Z,16.60
2019-05-19T19:25:02.631Z,16.50
2019-05-19T19:27:30.155Z,16.40
2019-05-19T19:30:03.765Z,16.40
2019-05-19T19:32:27.707Z,16.40
2019-05-19T19:34:55.262Z,16.30
2019-05-19T19:37:22.833Z,16.30
2019-05-19T19:39:50.384Z,16.20
2019-05-19T19:42:17.923Z,16.20
2019-05-19T19:44:45.569Z,16.10
2019-05-19T19:47:13.141Z,16.10
2019-05-19T19:49:40.721Z,16.10
2019-05-19T19:52:08.250Z,16.00
2019-05-19T19:54:35.821Z,15.90
2019-05-19T19:57:03.351Z,15.80
2019-05-19T19:59:30.912Z,15.70
2019-05-19T20:01:58.492Z,15.70
2019-05-19T20:04:26.068Z,15.60
2019-05-19T20:06:53.643Z,15.50
2019-05-19T20:09:21.483Z,15.40
2019-05-19T20:11:49.056Z,15.20
2019-05-19T20:14:16.586Z,14.80
2019-05-19T20:16:44.143Z,14.60
2019-05-19T20:19:11.712Z,14.60
2019-05-19T20:21:39.273Z,14.70
2019-05-19T20:24:06.830Z,14.80
2019-05-19T20:26:34.389Z,14.90
2019-05-19T20:29:01.942Z,15.10
2019-05-19T20:31:31.472Z,15.20
2019-05-19T20:33:58.822Z,15.10
2019-05-19T20:36:26.409Z,15.00
2019-05-19T20:38:54.012Z,14.90
2019-05-19T20:41:21.572Z,14.90
2019-05-19T20:43:49.120Z,14.80
2019-05-19T20:46:16.667Z,14.60
2019-05-19T20:48:44.212Z,14.40
2019-05-19T20:51:11.769Z,14.30
2019-05-19T20:53:39.307Z,14.30
2019-05-19T20:56:06.876Z,14.20
2019-05-19T20:58:34.411Z,14.00
2019-05-19T21:01:01.975Z,14.10
2019-05-19T21:03:29.688Z,14.20
2019-05-19T21:05:57.244Z,14.10
2019-05-19T21:08:24.856Z,14.10
2019-05-19T21:10:52.396Z,14.10
2019-05-19T21:13:19.966Z,14.10
2019-05-19T21:15:47.737Z,14.10
2019-05-19T21:18:15.295Z,14.10
2019-05-19T21:20:42.927Z,14.10
2019-05-19T21:23:10.568Z,14.10
2019-05-19T21:25:38.342Z,14.10
2019-05-19T21:28:05.896Z,14.10
2019-05-19T21:30:33.455Z,14.10
2019-05-19T21:33:00.997Z,14.10
2019-05-19T21:35:28.548Z,14.20
2019-05-19T21:37:56.183Z,14.20
2019-05-19T21:40:23.830Z,14.10
2019-05-19T21:42:51.419Z,14.00
2019-05-19T21:45:19.058Z,13.70
2019-05-19T21:47:46.620Z,13.50
2019-05-19T21:50:14.166Z,13.50
2019-05-19T21:52:41.757Z,13.40
2019-05-19T21:55:09.321Z,13.30
2019-05-19T21:57:36.847Z,13.30
2019-05-19T22:00:06.088Z,13.40
2019-05-19T22:02:33.643Z,13.40
2019-05-19T22:05:01.858Z,13.50
2019-05-19T22:07:34.139Z,13.40
2019-05-19T22:10:01.777Z,13.40
2019-05-19T22:12:29.356Z,13.40
2019-05-19T22:14:57.866Z,13.30
2019-05-19T22:17:25.419Z,13.40
2019-05-19T22:19:52.956Z,13.40
2019-05-19T22:22:20.518Z,13.30
2019-05-19T22:24:48.075Z,13.20
2019-05-19T22:27:15.652Z,13.30
2019-05-19T22:29:43.195Z,13.20
2019-05-19T22:32:10.743Z,13.20
2019-05-19T22:34:38.275Z,13.20
2019-05-19T22:37:05.848Z,13.20
2019-05-19T22:39:33.372Z,13.20
2019-05-19T22:42:00.936Z,13.20
2019-05-19T22:44:28.506Z,13.20
2019-05-19T22:46:56.050Z,13.10
2019-05-19T22:49:23.595Z,13.10
2019-05-19T22:51:51.167Z,13.10
2019-05-19T22:54:18.717Z,13.10
2019-05-19T22:56:46.284Z,13.10
2019-05-19T22:59:19.904Z,13.10
2019-05-19T23:01:51.467Z,13.10
2019-05-19T23:04:13.155Z,13.10
2019-05-19T23:06:40.695Z,13.00
2019-05-19T23:09:08.273Z,13.00
2019-05-19T23:11:35.894Z,13.00
2019-05-19T23:14:03.458Z,13.00
2019-05-19T23:16:30.992Z,13.00
2019-05-19T23:18:58.549Z,13.10
2019-05-19T23:21:26.078Z,13.10
2019-05-19T23:23:53.645Z,13.10
2019-05-19T23:26:21.209Z,13.10
2019-05-19T23:28:48.756Z,13.20
2019-05-19T23:31:16.327Z,13.20
2019-05-19T23:33:43.877Z,13.20
2019-05-19T23:36:11.494Z,13.20
2019-05-19T23:38:39.097Z,13.20
2019-05-19T23:41:06.673Z,13.20
2019-05-19T23:43:34.233Z,13.30
2019-05-19T23:46:01.776Z,13.20
2019-05-19T23:48:29.331Z,13.20
2019-05-19T23:50:56.896Z,13.20
2019-05-19T23:53:24.427Z,13.20
2019-05-19T23:55:51.988Z,13.20
2019-05-19T23:58:19.547Z,13.10
